Airfield :
LOGIN :

Register | Disclaimer

   EN    FR    IT 

 










Legend :    VFR   Marginal VFR   IFR   Intensive IFR   Very Intensive IFR
Visi :
Ceiling :
>= 8 km
>= 3000ft
5 to 8 km
1000 to 3000 ft
1500m to 5 km
500 to 1000 ft
800 to 1500m
200 to 500 ft
< 800m
< 200 ft
Symbols :   Thunderstorms  Fog  Heavy snow  Heavy precipitations  Wind > 20 kt
SIGMETs :     Misc.  Thunderstorms  Icing  Turbulence  Mountain Waves  Volcanic Ashes






- Airport Elevation : 1106 ft


LFSO - Nancy / Ochey

CURRENT METAR :
  • 201500Z AUTO 10006KT 080V140 CAVOK 22/09 Q1009

EXPIRED METARs :
  • 201430Z AUTO 04006KT 340V110 CAVOK 22/10 Q1009
  • 201400Z AUTO 12003KT 050V180 CAVOK 22/09 Q1009
  • 201330Z AUTO 06005KT 360V100 CAVOK 22/09 Q1009
  • 201300Z AUTO 09006KT 360V140 CAVOK 21/08 Q1009
  • 201230Z AUTO 07005KT 350V120 CAVOK 20/10 Q1010
  • 201200Z AUTO 06007KT 020V110 CAVOK 20/10 Q1010
  • 201130Z AUTO 12007KT CAVOK 19/12 Q1011
  • 201100Z AUTO 11006KT 080V160 9999 SCT038 BKN110 BKN130 19/09 Q1011
  • 201030Z AUTO VRB03KT 9999 FEW036 BKN120 BKN140 19/09 Q1011

Expired Forecast.



MET'MAP, your aeronautical weather chart ! - Copyright ORBIFLY December 2007 - Disclaimer

ORBIFLY MET'MAP TEAM :

Programming & Development : Alexandra Zaïnal
Original concept : Baudouin d'Aumeries
Technical & hardware support : Manuel Goepfert
Assistance : Marc-Olivier Méhu




SOURCES & CREDITS :

   NOAA